Main page
METAR-TAF:

METAR-TAF

Airports :

Norwich Airport

Norwich, England

latitude: 52-38N, longitude: 001-18E, elevation: 14 m

Current weather observation

The report was made 27 minutes ago, at 14:50 UTC
Wind 9 kt from the North, varying between West/Northwest and North/Northeast
Temperature 16°C
Humidity 45%
Pressure 1030 hPa
Visibility 10 km or more
no clouds below 1500 m and no cumulonimbus

METAR: EGSH 221450Z 35009KT 290V030 CAVOK 16/04 Q1030 NOSIG

Time: 16:17 (15:17 UTC)

Forecast

The report was made 1 hour and 16 minutes ago, at 14:01 UTC
Forecast valid from 22 at 15 UTC to 22 at 24 UTC
Wind 11 kt from the North/Northwest
Visibility 10 km or more
Few clouds at a height of 4000 ft
Becoming
from 22 at 18 UTC to 22 at 21 UTC
Wind 4 kt from variable directions

TAF: EGSH 221401Z 2215/2224 34011KT 9999 FEW040 BECMG 2218/2221 VRB04KT

Weather observations and forecasts of more than 4000 airports (METAR and TAF reports).

The available stations are represented by yellow and red dots on the map.

Hover mouse over dot to see the name of the station.

Then click to see weather observations and forecasts.

To change the map : click on the green buttons with a black cross to zoom in, on the green button with a dash to zoom out, or on the green arrows for adjacent maps.


METAR-TAF: